Time;durP1;ratioP1;P1;durP2;ratioP2;P2;SDS_P1;SDS_P2;PMS_P1;PMS_P2;Temp;Humidity;BMP_temperature;BMP_pressure;BME280_temperature;BME280_humidity;BME280_pressure;Samples;Min_cycle;Max_cycle;Signal;HPM_P1;HPM_P2
2024/01/18 00:00:27;;;;;;;5.68;1.63;;;0.60;99.90;;;;;;5064719;28;20033;-46
2024/01/18 00:02:53;;;;;;;3.63;1.70;;;0.60;99.90;;;;;;5066560;28;20036;-47
2024/01/18 00:05:19;;;;;;;2.97;1.50;;;0.50;99.90;;;;;;5065979;28;20270;-47
2024/01/18 00:07:44;;;;;;;4.53;1.60;;;0.50;99.90;;;;;;5065952;28;20113;-47
2024/01/18 00:10:10;;;;;;;3.47;1.30;;;0.50;99.90;;;;;;5065742;28;20055;-47
2024/01/18 00:12:37;;;;;;;2.22;1.35;;;0.40;99.90;;;;;;5064797;28;20025;-46
2024/01/18 00:15:03;;;;;;;3.08;1.35;;;0.30;99.90;;;;;;5064995;28;20040;-47
2024/01/18 00:17:28;;;;;;;2.70;1.50;;;0.30;99.90;;;;;;5064438;28;20184;-47
2024/01/18 00:19:54;;;;;;;3.65;1.48;;;0.30;99.90;;;;;;5065715;28;20027;-48
2024/01/18 00:22:20;;;;;;;3.95;1.50;;;0.30;99.90;;;;;;5065572;28;20147;-47
2024/01/18 00:24:46;;;;;;;3.17;1.95;;;0.30;99.90;;;;;;5064606;28;20028;-48
2024/01/18 00:27:12;;;;;;;3.35;1.42;;;0.20;99.90;;;;;;5065552;28;20021;-49
2024/01/18 00:29:37;;;;;;;5.40;2.40;;;0.10;99.90;;;;;;5065665;28;20100;-47
2024/01/18 00:32:03;;;;;;;3.40;1.50;;;0.10;99.90;;;;;;5064811;28;20041;-47
2024/01/18 00:34:29;;;;;;;3.42;1.27;;;0.10;99.90;;;;;;5065400;28;20087;-48
2024/01/18 00:36:55;;;;;;;3.25;1.38;;;0.00;99.90;;;;;;5065455;28;20087;-47
2024/01/18 00:39:21;;;;;;;3.65;1.40;;;0.00;99.90;;;;;;5064130;28;20104;-48
2024/01/18 00:41:47;;;;;;;2.20;1.50;;;0.00;99.90;;;;;;5065392;28;20032;-46
2024/01/18 00:44:14;;;;;;;3.05;1.40;;;0.00;99.90;;;;;;5065206;28;20028;-47
2024/01/18 00:46:39;;;;;;;2.50;1.60;;;-0.10;99.90;;;;;;5065995;28;20092;-48
2024/01/18 00:49:05;;;;;;;2.90;1.40;;;0.00;99.90;;;;;;5064895;28;20028;-47
2024/01/18 00:51:31;;;;;;;3.53;1.60;;;0.00;99.90;;;;;;5065049;28;20029;-46
2024/01/18 00:53:56;;;;;;;2.55;1.45;;;0.00;99.90;;;;;;5065307;28;20332;-46
2024/01/18 00:56:22;;;;;;;3.00;1.40;;;-0.10;99.90;;;;;;5065196;28;20231;-46
2024/01/18 00:58:49;;;;;;;2.38;1.13;;;0.00;99.90;;;;;;5065270;28;20029;-48
2024/01/18 01:01:15;;;;;;;3.88;1.98;;;0.00;99.90;;;;;;5065023;28;20164;-47
2024/01/18 01:03:41;;;;;;;2.75;1.60;;;0.00;99.90;;;;;;5064929;28;20021;-47
2024/01/18 01:06:10;;;;;;;4.13;1.98;;;0.00;99.90;;;;;;5065015;28;20029;-48
2024/01/18 01:08:36;;;;;;;5.88;2.92;;;-0.10;99.90;;;;;;5064137;28;20039;-49
2024/01/18 01:11:05;;;;;;;3.97;2.15;;;0.10;99.90;;;;;;5047561;28;20021;-48
2024/01/18 01:13:30;;;;;;;3.92;1.80;;;0.30;99.90;;;;;;5065092;28;20057;-47
2024/01/18 01:15:56;;;;;;;4.75;2.00;;;0.40;99.90;;;;;;5064846;28;20311;-46
2024/01/18 01:18:22;;;;;;;3.67;1.98;;;0.40;99.90;;;;;;5064965;28;20052;-46
2024/01/18 01:20:47;;;;;;;4.18;1.77;;;0.40;99.90;;;;;;5064917;28;20029;-46
2024/01/18 01:23:13;;;;;;;3.95;1.70;;;0.40;99.90;;;;;;5063646;28;20056;-48
2024/01/18 01:25:39;;;;;;;2.85;1.40;;;0.30;99.90;;;;;;5064873;28;20039;-50
2024/01/18 01:28:05;;;;;;;3.47;1.40;;;0.30;99.90;;;;;;5050797;28;20083;-47
2024/01/18 01:30:31;;;;;;;3.38;1.70;;;0.30;99.90;;;;;;5068724;28;20065;-48
2024/01/18 01:32:57;;;;;;;3.72;1.67;;;0.20;99.90;;;;;;5067633;28;20020;-46
2024/01/18 01:35:23;;;;;;;3.38;1.75;;;0.10;99.90;;;;;;5068202;28;20029;-46
2024/01/18 01:37:48;;;;;;;5.18;2.50;;;0.20;99.90;;;;;;5068084;28;20056;-48
2024/01/18 01:40:14;;;;;;;3.25;1.58;;;0.20;99.90;;;;;;5068071;28;20040;-47
2024/01/18 01:42:40;;;;;;;4.40;1.90;;;0.20;99.90;;;;;;5068477;28;20029;-47
2024/01/18 01:45:06;;;;;;;4.68;2.15;;;0.10;99.90;;;;;;5068437;28;20055;-47
2024/01/18 01:47:32;;;;;;;4.35;2.03;;;0.10;99.90;;;;;;5068064;28;20298;-49
2024/01/18 01:49:58;;;;;;;5.35;2.40;;;0.10;99.90;;;;;;5067916;28;20040;-47
2024/01/18 01:52:23;;;;;;;5.72;1.67;;;0.10;99.90;;;;;;5068211;28;20051;-47
2024/01/18 01:54:49;;;;;;;5.45;2.00;;;0.10;99.90;;;;;;5067212;28;20267;-49
2024/01/18 01:57:15;;;;;;;3.78;1.88;;;0.00;99.90;;;;;;5067477;28;20254;-46
2024/01/18 01:59:41;;;;;;;3.85;2.05;;;0.00;99.90;;;;;;5068039;28;20056;-46
2024/01/18 02:02:07;;;;;;;5.22;2.08;;;-0.10;99.90;;;;;;5050452;28;20017;-46
2024/01/18 02:04:32;;;;;;;4.03;1.70;;;-0.10;99.90;;;;;;5068160;28;20052;-47
2024/01/18 02:06:58;;;;;;;4.00;1.90;;;-0.10;99.90;;;;;;5067973;28;20205;-46
2024/01/18 02:09:23;;;;;;;3.35;1.80;;;-0.10;99.90;;;;;;5066905;28;20028;-46
2024/01/18 02:11:49;;;;;;;3.40;2.00;;;-0.10;99.90;;;;;;5067816;28;20044;-46
2024/01/18 02:14:15;;;;;;;4.03;2.30;;;-0.20;99.90;;;;;;5066846;28;20051;-48
2024/01/18 02:16:40;;;;;;;3.97;1.88;;;-0.10;99.90;;;;;;5050000;28;20124;-46
2024/01/18 02:19:06;;;;;;;2.72;1.70;;;0.00;99.90;;;;;;5066715;28;20068;-46
2024/01/18 02:21:32;;;;;;;3.97;1.98;;;0.10;99.90;;;;;;5066591;28;20291;-46
2024/01/18 02:24:18;;;;;;;3.10;1.85;;;0.10;99.90;;;;;;5049944;28;20016;-46
2024/01/18 02:26:43;;;;;;;2.55;1.70;;;0.20;99.90;;;;;;5067659;28;20183;-46
2024/01/18 02:29:09;;;;;;;3.45;2.05;;;0.20;99.90;;;;;;5067571;28;20035;-46
2024/01/18 02:31:35;;;;;;;3.20;1.90;;;0.20;99.90;;;;;;5067738;28;20091;-46
2024/01/18 02:34:00;;;;;;;3.50;1.75;;;0.20;99.90;;;;;;5067291;28;20099;-49
2024/01/18 02:36:26;;;;;;;4.78;2.13;;;0.10;99.90;;;;;;5067509;28;20029;-49
2024/01/18 02:38:52;;;;;;;4.63;2.50;;;0.20;99.90;;;;;;5049529;28;20302;-46
2024/01/18 02:41:18;;;;;;;5.25;2.10;;;0.10;99.90;;;;;;5066929;28;20312;-46
2024/01/18 02:43:43;;;;;;;4.57;2.22;;;0.20;99.90;;;;;;5067064;28;20267;-48
2024/01/18 02:46:09;;;;;;;3.72;2.03;;;0.20;99.90;;;;;;5049901;28;20060;-47
2024/01/18 02:48:35;;;;;;;3.17;2.13;;;0.10;99.90;;;;;;5067205;28;20040;-47
2024/01/18 02:51:01;;;;;;;4.22;2.00;;;0.00;99.90;;;;;;5066154;28;20075;-46
2024/01/18 02:53:26;;;;;;;3.60;1.92;;;-0.20;99.90;;;;;;5067037;28;20029;-48
2024/01/18 02:55:52;;;;;;;3.40;1.80;;;-0.10;99.90;;;;;;5067000;28;20048;-49
2024/01/18 02:58:18;;;;;;;3.90;1.92;;;0.00;99.90;;;;;;5065866;28;20024;-47
2024/01/18 03:00:43;;;;;;;4.15;2.15;;;0.00;99.90;;;;;;5066905;28;20037;-48
2024/01/18 03:03:09;;;;;;;3.33;1.92;;;0.00;99.90;;;;;;5066926;28;20036;-49
2024/01/18 03:05:35;;;;;;;4.65;2.20;;;0.00;99.90;;;;;;5066810;28;20156;-47
2024/01/18 03:08:00;;;;;;;3.03;1.90;;;-0.10;99.90;;;;;;5066664;28;20242;-49
2024/01/18 03:10:26;;;;;;;3.38;1.80;;;0.00;99.90;;;;;;5066823;28;20092;-47
2024/01/18 03:12:52;;;;;;;3.90;2.28;;;0.00;99.90;;;;;;5066238;28;20021;-48
2024/01/18 03:15:18;;;;;;;3.45;1.90;;;-0.10;99.90;;;;;;5066179;28;20060;-47
2024/01/18 03:17:44;;;;;;;3.67;2.10;;;-0.10;99.90;;;;;;5066602;28;20267;-47
2024/01/18 03:20:10;;;;;;;4.93;2.20;;;-0.20;99.90;;;;;;5066717;28;20182;-47
2024/01/18 03:22:40;;;;;;;3.95;2.10;;;-0.30;99.90;;;;;;5067076;28;20032;-48
2024/01/18 03:25:06;;;;;;;6.47;2.10;;;-0.20;99.90;;;;;;5066528;28;20071;-48
2024/01/18 03:27:31;;;;;;;3.85;1.90;;;-0.20;99.90;;;;;;5066548;28;20025;-46
2024/01/18 03:29:57;;;;;;;2.78;1.50;;;-0.20;99.90;;;;;;5065070;28;20038;-47
2024/01/18 03:32:23;;;;;;;5.18;1.83;;;-0.10;99.90;;;;;;5066329;28;20037;-47
2024/01/18 03:34:49;;;;;;;4.63;2.70;;;-0.10;99.90;;;;;;5065184;28;20290;-46
2024/01/18 03:37:14;;;;;;;5.60;2.65;;;-0.10;99.90;;;;;;5048409;28;20033;-48
2024/01/18 03:39:40;;;;;;;4.78;1.80;;;0.00;99.90;;;;;;5066086;28;20094;-50
2024/01/18 03:42:06;;;;;;;5.60;1.98;;;0.10;99.90;;;;;;5066393;28;20096;-47
2024/01/18 03:44:33;;;;;;;3.80;1.77;;;0.20;99.90;;;;;;5065899;28;20025;-48
2024/01/18 03:47:00;;;;;;;3.28;1.80;;;0.20;99.90;;;;;;5066124;28;20174;-50
2024/01/18 03:49:25;;;;;;;3.40;1.90;;;0.10;99.90;;;;;;5065476;28;20082;-48
2024/01/18 03:51:51;;;;;;;5.35;2.05;;;0.10;99.90;;;;;;5064829;28;20033;-49
2024/01/18 03:54:18;;;;;;;5.05;2.63;;;0.10;99.90;;;;;;5065915;28;20037;-50
2024/01/18 03:56:43;;;;;;;5.75;2.50;;;0.10;99.90;;;;;;5066016;28;20076;-50
2024/01/18 03:59:11;;;;;;;4.18;2.13;;;0.00;99.90;;;;;;5065850;28;20267;-50
2024/01/18 04:01:37;;;;;;;6.65;2.25;;;-0.10;99.90;;;;;;5064907;28;20386;-48
2024/01/18 04:04:03;;;;;;;5.05;2.60;;;-0.10;99.90;;;;;;5065658;28;20070;-47
2024/01/18 04:06:28;;;;;;;7.70;2.55;;;-0.10;99.90;;;;;;5065755;28;20021;-48
2024/01/18 04:08:54;;;;;;;5.75;2.38;;;0.00;99.90;;;;;;5065778;28;20057;-48
2024/01/18 04:11:19;;;;;;;4.85;2.60;;;0.00;99.90;;;;;;5065443;28;20033;-47
2024/01/18 04:13:45;;;;;;;7.35;2.55;;;0.10;99.90;;;;;;5065794;28;20110;-48
2024/01/18 04:16:11;;;;;;;4.82;2.55;;;0.30;99.90;;;;;;5065399;28;20136;-49
2024/01/18 04:18:37;;;;;;;6.65;2.50;;;0.40;99.90;;;;;;5064585;28;20024;-50
2024/01/18 04:21:02;;;;;;;1.95;1.08;;;0.60;99.90;;;;;;5065547;28;20044;-47
2024/01/18 04:23:28;;;;;;;1.45;0.70;;;0.70;99.90;;;;;;5065298;28;20029;-47
2024/01/18 04:25:54;;;;;;;1.55;0.70;;;1.00;99.90;;;;;;5065387;28;20032;-47
2024/01/18 04:28:20;;;;;;;2.70;0.82;;;1.20;99.90;;;;;;5065382;28;20033;-48
2024/01/18 04:30:46;;;;;;;0.90;0.60;;;1.30;99.90;;;;;;5065563;28;20033;-47
2024/01/18 04:33:11;;;;;;;1.33;0.75;;;1.40;99.90;;;;;;5065455;28;20302;-47
2024/01/18 04:35:37;;;;;;;0.52;0.50;;;1.50;99.90;;;;;;5065566;28;20036;-47
2024/01/18 04:38:03;;;;;;;1.00;0.50;;;1.50;99.90;;;;;;5064285;28;20082;-49
2024/01/18 04:40:29;;;;;;;0.70;0.60;;;1.60;99.90;;;;;;5065378;28;20178;-47
2024/01/18 04:42:54;;;;;;;0.77;0.70;;;1.60;99.90;;;;;;5064390;28;20029;-50
2024/01/18 04:45:20;;;;;;;1.23;0.75;;;1.60;99.90;;;;;;5065139;28;20237;-50
2024/01/18 04:47:46;;;;;;;1.70;0.80;;;1.60;99.90;;;;;;5065158;28;20049;-49
2024/01/18 04:50:12;;;;;;;1.02;0.70;;;1.60;99.90;;;;;;5064951;28;20037;-47
2024/01/18 04:52:37;;;;;;;1.10;0.80;;;1.70;99.90;;;;;;5065289;28;20044;-48
2024/01/18 04:55:04;;;;;;;1.10;0.80;;;1.80;99.90;;;;;;5065312;28;20020;-50
2024/01/18 04:57:35;;;;;;;2.72;0.90;;;1.80;99.90;;;;;;5064971;28;20052;-49
2024/01/18 05:00:00;;;;;;;1.60;0.90;;;1.80;99.90;;;;;;5065436;28;20037;-47
2024/01/18 05:02:26;;;;;;;0.88;0.70;;;1.80;99.90;;;;;;5068172;28;20031;-48
2024/01/18 05:04:52;;;;;;;1.42;0.80;;;1.90;99.90;;;;;;5068699;28;20040;-48
2024/01/18 05:07:18;;;;;;;2.85;0.90;;;1.90;99.90;;;;;;5069048;28;20100;-49
2024/01/18 05:09:44;;;;;;;2.53;1.10;;;1.90;99.90;;;;;;5069462;28;20029;-50
2024/01/18 05:12:09;;;;;;;1.50;0.90;;;1.90;99.90;;;;;;5069138;28;20059;-50
2024/01/18 05:14:35;;;;;;;2.70;1.00;;;1.80;99.90;;;;;;5068981;28;20045;-50
2024/01/18 05:17:10;;;;;;;3.33;0.82;;;1.90;99.90;;;;;;5068798;28;20120;-51
2024/01/18 05:19:36;;;;;;;3.28;1.13;;;1.80;99.90;;;;;;5068164;28;20032;-50
2024/01/18 05:22:02;;;;;;;3.38;1.10;;;1.80;99.90;;;;;;5068676;28;20286;-50
2024/01/18 05:24:27;;;;;;;1.92;1.00;;;1.60;99.90;;;;;;5068722;28;20021;-49
2024/01/18 05:26:53;;;;;;;1.98;1.20;;;1.60;99.90;;;;;;5068718;28;20025;-48
2024/01/18 05:29:19;;;;;;;3.58;1.10;;;1.50;99.90;;;;;;5068601;28;20079;-47
2024/01/18 05:31:46;;;;;;;3.03;0.98;;;1.40;99.90;;;;;;5068620;28;20036;-47
2024/01/18 05:34:13;;;;;;;1.98;0.98;;;1.40;99.90;;;;;;5067525;28;20268;-48
2024/01/18 05:36:38;;;;;;;1.30;0.90;;;1.40;99.90;;;;;;5068656;28;20039;-47
2024/01/18 05:39:04;;;;;;;4.43;1.20;;;1.30;99.90;;;;;;5068603;28;20167;-47
2024/01/18 05:41:30;;;;;;;2.45;0.95;;;1.30;99.90;;;;;;5067507;28;20041;-49
2024/01/18 05:43:55;;;;;;;1.05;0.88;;;1.20;99.90;;;;;;5068275;28;20025;-49
2024/01/18 05:46:22;;;;;;;2.00;1.10;;;1.20;99.90;;;;;;5068379;28;20032;-50
2024/01/18 05:48:49;;;;;;;5.22;1.20;;;1.20;99.90;;;;;;5068537;28;20033;-50
2024/01/18 05:51:15;;;;;;;4.35;1.13;;;1.20;99.90;;;;;;5068187;28;20029;-49
2024/01/18 05:53:40;;;;;;;3.17;1.25;;;1.10;99.90;;;;;;5068367;28;20163;-50
2024/01/18 05:56:06;;;;;;;3.65;1.00;;;1.10;99.90;;;;;;5068100;28;20053;-50
2024/01/18 05:58:32;;;;;;;3.25;1.13;;;1.20;99.90;;;;;;5068133;28;20255;-50
2024/01/18 06:00:58;;;;;;;2.75;1.20;;;1.30;99.90;;;;;;5068032;28;20187;-48
2024/01/18 06:03:23;;;;;;;3.38;1.50;;;1.30;99.90;;;;;;5068172;28;20088;-49
2024/01/18 06:05:49;;;;;;;3.67;1.50;;;1.30;99.90;;;;;;5067762;28;20029;-50
2024/01/18 06:08:16;;;;;;;8.15;5.50;;;1.30;99.90;;;;;;5067412;28;20175;-49
2024/01/18 06:10:42;;;;;;;8.73;2.50;;;1.30;99.90;;;;;;5067901;28;20100;-50
2024/01/18 06:13:09;;;;;;;4.28;2.50;;;1.40;99.90;;;;;;5067071;28;20065;-50
2024/01/18 06:15:35;;;;;;;4.90;2.00;;;1.40;99.90;;;;;;5067711;28;20136;-50
2024/01/18 06:18:03;;;;;;;8.02;2.42;;;1.40;99.90;;;;;;5066778;28;20389;-50
2024/01/18 06:20:30;;;;;;;5.40;1.95;;;1.40;99.90;;;;;;5067508;28;20037;-50
2024/01/18 06:22:57;;;;;;;3.40;2.30;;;1.40;99.90;;;;;;5068298;28;20021;-50
2024/01/18 06:25:23;;;;;;;4.50;2.20;;;1.50;99.90;;;;;;5066818;28;20043;-47
2024/01/18 06:27:49;;;;;;;3.22;1.35;;;1.60;99.90;;;;;;5067805;28;20256;-53
2024/01/18 06:30:17;;;;;;;3.60;1.10;;;1.60;99.90;;;;;;5067444;28;20024;-51
2024/01/18 06:32:42;;;;;;;3.03;1.30;;;1.60;99.90;;;;;;5066538;28;20053;-47
2024/01/18 06:35:09;;;;;;;4.50;1.38;;;1.60;99.90;;;;;;5067402;28;20041;-48
2024/01/18 06:37:35;;;;;;;1.95;1.10;;;1.60;99.90;;;;;;5067187;28;20243;-47
2024/01/18 06:40:02;;;;;;;3.42;1.33;;;1.60;99.90;;;;;;5066766;28;20045;-50
2024/01/18 06:42:27;;;;;;;3.22;1.15;;;1.60;99.90;;;;;;5067371;28;20044;-51
2024/01/18 06:44:53;;;;;;;2.17;1.23;;;1.60;99.90;;;;;;5067334;28;20080;-47
2024/01/18 06:47:19;;;;;;;3.15;1.70;;;1.70;99.90;;;;;;5066955;28;20041;-50
2024/01/18 06:49:44;;;;;;;2.60;1.42;;;1.70;99.90;;;;;;5067175;28;20047;-49
2024/01/18 06:52:10;;;;;;;4.93;1.70;;;1.70;99.90;;;;;;5066852;28;20078;-51
2024/01/18 06:54:36;;;;;;;6.65;2.97;;;1.60;99.90;;;;;;5067236;28;20226;-50
2024/01/18 06:57:02;;;;;;;2.33;1.50;;;1.50;99.90;;;;;;5067041;28;20040;-51
2024/01/18 06:59:28;;;;;;;4.22;2.13;;;1.50;99.90;;;;;;5066760;28;20171;-49
2024/01/18 07:01:53;;;;;;;2.80;1.10;;;1.40;99.90;;;;;;5066097;28;20047;-47
2024/01/18 07:04:20;;;;;;;3.28;1.10;;;1.40;99.90;;;;;;5066815;28;20343;-50
2024/01/18 07:06:45;;;;;;;2.70;1.38;;;1.30;99.90;;;;;;5065713;28;20059;-50
2024/01/18 07:09:11;;;;;;;2.00;1.17;;;1.20;99.90;;;;;;5066772;28;20041;-48
2024/01/18 07:11:40;;;;;;;2.35;1.00;;;1.20;99.90;;;;;;5066352;28;20024;-49
2024/01/18 07:14:05;;;;;;;3.08;1.50;;;1.10;99.90;;;;;;5066387;28;20033;-49
2024/01/18 07:16:31;;;;;;;2.67;1.40;;;1.00;99.90;;;;;;5066511;28;20421;-50
2024/01/18 07:18:57;;;;;;;4.90;1.63;;;0.90;99.90;;;;;;5066579;28;20247;-54
2024/01/18 07:21:22;;;;;;;5.18;2.30;;;0.90;99.90;;;;;;5066084;28;20028;-47
2024/01/18 07:23:48;;;;;;;3.42;1.40;;;0.70;99.90;;;;;;5065296;28;20048;-48
2024/01/18 07:26:14;;;;;;;4.35;1.40;;;0.70;99.90;;;;;;5066329;28;20131;-47
2024/01/18 07:28:40;;;;;;;6.28;3.58;;;0.70;99.90;;;;;;5066554;28;20084;-48
2024/01/18 07:31:05;;;;;;;4.97;1.90;;;0.60;99.90;;;;;;5065901;28;20036;-47
2024/01/18 07:33:31;;;;;;;3.13;1.45;;;0.50;99.90;;;;;;5066286;28;20040;-48
2024/01/18 07:35:57;;;;;;;5.30;1.42;;;0.50;99.90;;;;;;5065130;28;20036;-47
2024/01/18 07:38:23;;;;;;;2.60;1.38;;;0.40;99.90;;;;;;5066118;28;20037;-48
2024/01/18 07:40:49;;;;;;;3.83;1.38;;;0.30;99.90;;;;;;5065074;28;20095;-49
2024/01/18 07:43:14;;;;;;;2.40;1.35;;;0.30;99.90;;;;;;5065722;28;20020;-49
2024/01/18 07:45:40;;;;;;;3.20;1.58;;;0.30;99.90;;;;;;5064829;28;20024;-48
2024/01/18 07:48:06;;;;;;;3.47;1.75;;;0.20;99.90;;;;;;5065732;28;20017;-47
2024/01/18 07:50:32;;;;;;;4.63;2.28;;;0.20;99.90;;;;;;5066037;28;20313;-47
2024/01/18 07:52:58;;;;;;;4.45;2.20;;;0.10;99.90;;;;;;5064764;28;20100;-48
2024/01/18 07:55:25;;;;;;;3.47;1.52;;;0.10;99.90;;;;;;5065546;28;20096;-50
2024/01/18 07:57:51;;;;;;;3.67;1.77;;;0.00;99.90;;;;;;5065764;28;20025;-50
2024/01/18 08:00:17;;;;;;;2.80;1.40;;;0.00;99.90;;;;;;5065249;28;20044;-47
2024/01/18 08:02:43;;;;;;;5.55;1.80;;;0.00;99.90;;;;;;5065379;28;20265;-49
2024/01/18 08:05:08;;;;;;;5.28;1.60;;;-0.10;99.90;;;;;;5065557;28;20051;-47
2024/01/18 08:07:34;;;;;;;3.13;1.52;;;-0.20;99.90;;;;;;5065406;28;20048;-47
2024/01/18 08:10:00;;;;;;;3.05;1.40;;;-0.20;99.90;;;;;;5065198;28;20128;-47
2024/01/18 08:12:25;;;;;;;2.53;1.60;;;-0.10;99.90;;;;;;5065489;28;20032;-47
2024/01/18 08:14:51;;;;;;;4.88;1.50;;;-0.10;99.90;;;;;;5065395;28;20045;-47
2024/01/18 08:17:17;;;;;;;6.38;2.00;;;-0.10;99.90;;;;;;5065257;28;20117;-46
2024/01/18 08:19:43;;;;;;;13.23;3.08;;;-0.20;99.90;;;;;;5064854;28;20221;-47
2024/01/18 08:22:11;;;;;;;13.27;4.20;;;-0.20;99.90;;;;;;5065049;28;20048;-47
2024/01/18 08:24:36;;;;;;;7.78;2.40;;;-0.20;99.90;;;;;;5065458;28;20024;-50
2024/01/18 08:27:02;;;;;;;5.60;2.08;;;-0.30;99.90;;;;;;5065360;28;20028;-48
2024/01/18 08:29:28;;;;;;;5.05;2.10;;;-0.30;99.90;;;;;;5065293;28;20152;-48
2024/01/18 08:31:54;;;;;;;6.15;3.33;;;-0.40;99.90;;;;;;5065052;28;20082;-47
2024/01/18 08:34:20;;;;;;;15.35;7.72;;;-0.30;99.90;;;;;;5064917;28;20020;-50
2024/01/18 08:36:45;;;;;;;18.58;9.23;;;-0.40;99.90;;;;;;5047277;28;20035;-49
2024/01/18 08:39:11;;;;;;;12.25;5.60;;;-0.40;99.90;;;;;;5065275;28;20259;-48
2024/01/18 08:41:37;;;;;;;11.10;4.38;;;-0.40;99.90;;;;;;5065253;28;20025;-50
2024/01/18 08:44:02;;;;;;;11.60;6.13;;;-0.40;99.90;;;;;;5064253;28;20088;-47
2024/01/18 08:46:28;;;;;;;11.77;6.40;;;-0.50;99.90;;;;;;5065105;28;20047;-48
2024/01/18 08:48:54;;;;;;;10.90;5.78;;;-0.30;99.90;;;;;;5065080;28;20021;-47
2024/01/18 08:51:19;;;;;;;9.35;3.65;;;-0.30;99.90;;;;;;5063878;28;20133;-48
2024/01/18 08:53:46;;;;;;;8.15;5.07;;;-0.20;99.90;;;;;;5063708;28;20074;-47
2024/01/18 08:56:12;;;;;;;11.70;4.90;;;0.10;99.90;;;;;;5065082;28;20036;-49
2024/01/18 08:58:39;;;;;;;10.00;5.43;;;0.10;99.90;;;;;;5064889;28;20056;-50
2024/01/18 09:01:04;;;;;;;6.25;3.20;;;-0.10;99.90;;;;;;5064892;28;20075;-47
2024/01/18 09:03:30;;;;;;;6.05;2.80;;;-0.10;99.90;;;;;;5064443;28;20033;-47
2024/01/18 09:05:56;;;;;;;6.15;3.80;;;-0.20;99.90;;;;;;5063676;28;20199;-48
2024/01/18 09:08:22;;;;;;;7.55;5.55;;;-0.20;99.90;;;;;;5063508;28;20029;-48
2024/01/18 09:10:48;;;;;;;7.30;4.60;;;-0.20;99.90;;;;;;5063800;28;20020;-48
2024/01/18 09:13:14;;;;;;;7.43;3.45;;;-0.20;99.90;;;;;;5064536;28;20033;-47
2024/01/18 09:15:41;;;;;;;5.90;3.90;;;-0.30;99.90;;;;;;5063657;28;20094;-47
2024/01/18 09:18:07;;;;;;;10.70;4.90;;;-0.20;99.90;;;;;;5064750;28;20078;-47
2024/01/18 09:20:33;;;;;;;10.65;4.60;;;-0.20;99.90;;;;;;5063709;28;20108;-47
2024/01/18 09:22:59;;;;;;;8.60;3.63;;;-0.20;99.90;;;;;;5064264;28;20025;-47
2024/01/18 09:25:24;;;;;;;11.35;4.45;;;-0.20;99.90;;;;;;5064646;28;20156;-48
2024/01/18 09:27:51;;;;;;;8.77;3.53;;;-0.10;99.90;;;;;;5063696;28;20350;-47
2024/01/18 09:30:16;;;;;;;10.15;5.47;;;-0.10;99.90;;;;;;5064386;28;20190;-48
2024/01/18 09:32:42;;;;;;;9.23;4.03;;;0.10;99.90;;;;;;5063639;28;20048;-47
2024/01/18 09:35:08;;;;;;;6.55;3.42;;;0.20;99.90;;;;;;5064727;28;20055;-47
2024/01/18 09:37:35;;;;;;;5.95;2.50;;;0.60;99.90;;;;;;5064629;28;20048;-47
2024/01/18 09:40:01;;;;;;;30.17;11.38;;;2.30;99.90;;;;;;5064565;28;20025;-47
2024/01/18 09:42:30;;;;;;;12.93;5.40;;;3.90;99.90;;;;;;5064543;28;20039;-48
2024/01/18 09:44:58;;;;;;;10.73;4.85;;;5.20;99.90;;;;;;5064341;28;20028;-45
2024/01/18 09:47:23;;;;;;;5.32;3.17;;;5.80;99.90;;;;;;5064188;28;20032;-47
2024/01/18 09:49:49;;;;;;;6.95;3.10;;;6.50;99.90;;;;;;5067031;28;20052;-51
2024/01/18 09:52:14;;;;;;;7.43;2.90;;;7.10;99.90;;;;;;5050186;28;20028;-50
2024/01/18 09:54:42;;;;;;;8.30;3.33;;;8.00;99.90;;;;;;5066655;28;20024;-49
2024/01/18 09:57:08;;;;;;;3.65;2.20;;;8.50;99.90;;;;;;5066966;28;20136;-49
2024/01/18 09:59:35;;;;;;;4.95;2.15;;;8.90;99.90;;;;;;5050512;28;20029;-51
2024/01/18 10:02:01;;;;;;;4.00;2.10;;;9.00;99.90;;;;;;5067792;28;20020;-51
2024/01/18 10:04:27;;;;;;;8.95;6.03;;;7.90;99.90;;;;;;5067912;28;20187;-49
2024/01/18 10:06:54;;;;;;;6.85;4.70;;;6.40;99.90;;;;;;5066878;28;20017;-51
2024/01/18 10:09:20;;;;;;;8.82;4.80;;;5.20;99.90;;;;;;5067607;28;20057;-52
2024/01/18 10:11:46;;;;;;;9.93;5.15;;;4.30;99.90;;;;;;5067776;28;20017;-51
2024/01/18 10:14:11;;;;;;;9.40;6.38;;;3.70;99.90;;;;;;5067464;28;20036;-51
2024/01/18 10:16:38;;;;;;;10.50;6.93;;;3.20;99.90;;;;;;5066994;28;20052;-49
2024/01/18 10:19:05;;;;;;;12.63;6.47;;;2.90;99.90;;;;;;5067526;28;20093;-49
2024/01/18 10:21:33;;;;;;;13.25;7.00;;;2.70;99.90;;;;;;5067124;28;20096;-48
2024/01/18 10:23:59;;;;;;;14.13;6.70;;;2.60;99.90;;;;;;5067285;28;20037;-45
2024/01/18 10:26:29;;;;;;;11.32;6.22;;;2.50;99.90;;;;;;5065954;28;20021;-49
2024/01/18 10:28:55;;;;;;;11.38;7.57;;;2.40;99.90;;;;;;5067162;28;20032;-48
2024/01/18 10:31:21;;;;;;;13.35;6.55;;;2.40;99.90;;;;;;5066214;28;20152;-45
2024/01/18 10:33:46;;;;;;;13.02;6.03;;;2.30;99.90;;;;;;5067119;28;20118;-45
2024/01/18 10:36:13;;;;;;;9.20;4.50;;;2.30;99.90;;;;;;5067255;28;20116;-45
2024/01/18 10:38:41;;;;;;;11.93;5.43;;;2.30;99.90;;;;;;5067061;28;20094;-49
2024/01/18 10:41:07;;;;;;;10.75;5.40;;;2.30;99.90;;;;;;5065899;28;20089;-48
2024/01/18 10:43:34;;;;;;;11.05;5.20;;;2.40;99.90;;;;;;5066887;28;20108;-47
2024/01/18 10:46:00;;;;;;;15.05;6.85;;;2.40;99.90;;;;;;5065629;28;20100;-49
2024/01/18 10:48:26;;;;;;;10.05;5.80;;;2.40;99.90;;;;;;5066250;28;20021;-50
2024/01/18 10:50:53;;;;;;;8.52;5.25;;;2.40;99.90;;;;;;5065588;28;20032;-49
2024/01/18 10:53:34;;;;;;;10.50;5.57;;;2.40;99.90;;;;;;5065964;28;20040;-50
2024/01/18 10:56:01;;;;;;;9.52;4.90;;;2.40;99.90;;;;;;5066128;28;20090;-49
2024/01/18 10:58:27;;;;;;;9.15;5.45;;;2.40;99.90;;;;;;5065512;28;20028;-49
2024/01/18 11:00:52;;;;;;;8.93;5.80;;;2.40;99.90;;;;;;5066455;28;20035;-50
2024/01/18 11:03:18;;;;;;;10.90;7.45;;;2.40;99.90;;;;;;5065081;28;20052;-48
2024/01/18 11:05:47;;;;;;;15.40;10.77;;;2.50;99.90;;;;;;5066139;28;20075;-49
2024/01/18 11:08:13;;;;;;;16.23;12.57;;;2.60;99.90;;;;;;5066350;28;20021;-49
2024/01/18 11:10:39;;;;;;;16.10;10.20;;;2.60;99.90;;;;;;5066614;28;20089;-49
2024/01/18 11:13:05;;;;;;;11.30;8.13;;;2.70;99.90;;;;;;5066464;28;20190;-47
2024/01/18 11:15:31;;;;;;;10.63;8.13;;;2.70;99.90;;;;;;5065292;28;20044;-50
2024/01/18 11:17:58;;;;;;;13.93;10.10;;;2.80;99.90;;;;;;5065224;28;20056;-50
2024/01/18 11:20:24;;;;;;;13.38;9.35;;;2.80;99.90;;;;;;5066357;28;20107;-47
2024/01/18 11:22:50;;;;;;;11.80;7.97;;;2.90;99.90;;;;;;5066050;28;20021;-49
2024/01/18 11:25:21;;;;;;;5.28;3.65;;;3.00;99.90;;;;;;5065380;28;20032;-50
2024/01/18 11:27:46;;;;;;;9.77;6.18;;;3.00;99.90;;;;;;5065268;28;20055;-47
2024/01/18 11:30:38;;;;;;;9.05;5.68;;;3.10;99.90;;;;;;5064727;28;20231;-47
2024/01/18 11:33:07;;;;;;;12.00;7.15;;;3.20;99.90;;;;;;5065671;28;20079;-49
2024/01/18 11:35:34;;;;;;;73.60;48.03;;;3.30;99.90;;;;;;5065923;28;20032;-49
2024/01/18 11:38:24;;;;;;;14.75;11.73;;;3.30;99.90;;;;;;5065003;28;20108;-48
2024/01/18 11:40:56;;;;;;;14.88;7.97;;;3.40;99.90;;;;;;5065791;28;20032;-47
2024/01/18 11:43:23;;;;;;;7.63;4.30;;;3.40;99.90;;;;;;5065146;28;20047;-46
2024/01/18 11:45:52;;;;;;;19.33;7.28;;;3.50;99.90;;;;;;5064410;28;20175;-48
2024/01/18 11:48:18;;;;;;;6.78;2.20;;;3.60;99.90;;;;;;5065785;28;20162;-47
2024/01/18 11:50:44;;;;;;;5.03;2.00;;;3.70;99.90;;;;;;5065806;28;20306;-50
2024/01/18 11:53:11;;;;;;;5.13;3.22;;;3.80;99.90;;;;;;5065528;28;20033;-50
2024/01/18 11:55:44;;;;;;;4.82;1.88;;;3.90;99.90;;;;;;5065548;28;20033;-50
2024/01/18 11:58:10;;;;;;;4.45;1.90;;;4.10;99.90;;;;;;5065704;28;20028;-50
2024/01/18 12:00:36;;;;;;;5.28;1.50;;;4.80;99.90;;;;;;5047323;28;20246;-50
2024/01/18 12:03:03;;;;;;;5.03;2.63;;;7.50;99.90;;;;;;5065672;28;20214;-50
2024/01/18 12:05:29;;;;;;;5.07;2.00;;;10.00;99.90;;;;;;5065242;28;20174;-50
2024/01/18 12:07:55;;;;;;;5.38;4.35;;;11.30;99.90;;;;;;5065384;28;20021;-50
2024/01/18 12:10:21;;;;;;;5.80;1.77;;;12.70;99.90;;;;;;5063692;28;20079;-50
2024/01/18 12:12:47;;;;;;;3.25;1.55;;;13.80;99.90;;;;;;5065354;28;20104;-51
2024/01/18 12:15:17;;;;;;;4.80;1.52;;;14.50;99.90;;;;;;5064414;28;20102;-50
2024/01/18 12:17:44;;;;;;;2.30;1.92;;;15.50;99.90;;;;;;5063536;28;20056;-51
2024/01/18 12:20:14;;;;;;;2.22;0.90;;;16.30;99.90;;;;;;5064197;28;20060;-52
2024/01/18 12:22:39;;;;;;;;;;;17.00;99.90;;;;;;5065751;28;20226;-50
2024/01/18 12:25:06;;;;;;;2.42;1.10;;;17.50;99.90;;;;;;5065272;28;19968;-50
2024/01/18 12:27:32;;;;;;;2.67;1.25;;;18.10;99.90;;;;;;5064831;28;20294;-49
2024/01/18 12:29:57;;;;;;;3.55;1.63;;;17.70;99.90;;;;;;5064832;28;20029;-51
2024/01/18 12:32:23;;;;;;;6.85;3.78;;;16.40;99.90;;;;;;5064809;28;20036;-51
2024/01/18 12:34:48;;;;;;;4.00;1.40;;;14.20;99.90;;;;;;5064016;28;20047;-51
2024/01/18 12:37:14;;;;;;;2.90;1.20;;;12.50;99.90;;;;;;5065189;28;20275;-50
2024/01/18 12:39:40;;;;;;;1.65;0.88;;;11.20;99.90;;;;;;5064800;28;20033;-46
2024/01/18 12:42:06;;;;;;;4.00;1.58;;;11.70;99.90;;;;;;5065184;28;20040;-50
2024/01/18 12:44:31;;;;;;;2.40;1.02;;;11.60;99.90;;;;;;5047364;28;20025;-49
2024/01/18 12:47:00;;;;;;;2.05;0.95;;;10.70;99.90;;;;;;5064981;28;20045;-51